sensor_id;sensor_type;location;lat;lon;timestamp;P1;durP1;ratioP1;P2;durP2;ratioP2
53411;SDS011;39307;52.870;13.660;2023-10-08T00:00:06;9.82;;;2.17;;
53411;SDS011;39307;52.870;13.660;2023-10-08T00:02:33;11.10;;;2.38;;
53411;SDS011;39307;52.870;13.660;2023-10-08T00:04:59;8.02;;;2.20;;
53411;SDS011;39307;52.870;13.660;2023-10-08T00:07:25;8.43;;;2.38;;
53411;SDS011;39307;52.870;13.660;2023-10-08T00:09:51;11.02;;;2.50;;
53411;SDS011;39307;52.870;13.660;2023-10-08T00:12:18;8.45;;;2.25;;
53411;SDS011;39307;52.870;13.660;2023-10-08T00:14:47;9.43;;;2.22;;
53411;SDS011;39307;52.870;13.660;2023-10-08T00:17:13;8.63;;;2.40;;
53411;SDS011;39307;52.870;13.660;2023-10-08T00:19:40;9.77;;;2.25;;
53411;SDS011;39307;52.870;13.660;2023-10-08T00:22:06;7.85;;;1.80;;
53411;SDS011;39307;52.870;13.660;2023-10-08T00:24:32;9.70;;;2.10;;
53411;SDS011;39307;52.870;13.660;2023-10-08T00:26:59;9.52;;;2.33;;
53411;SDS011;39307;52.870;13.660;2023-10-08T00:29:25;9.40;;;2.22;;
53411;SDS011;39307;52.870;13.660;2023-10-08T00:31:52;8.52;;;2.00;;
53411;SDS011;39307;52.870;13.660;2023-10-08T00:34:18;8.57;;;2.30;;
53411;SDS011;39307;52.870;13.660;2023-10-08T00:36:46;8.52;;;2.35;;
53411;SDS011;39307;52.870;13.660;2023-10-08T00:39:13;8.97;;;2.10;;
53411;SDS011;39307;52.870;13.660;2023-10-08T00:41:45;9.23;;;2.22;;
53411;SDS011;39307;52.870;13.660;2023-10-08T00:44:12;9.07;;;2.40;;
53411;SDS011;39307;52.870;13.660;2023-10-08T00:46:40;9.02;;;2.47;;
53411;SDS011;39307;52.870;13.660;2023-10-08T00:49:08;9.48;;;2.00;;
53411;SDS011;39307;52.870;13.660;2023-10-08T00:51:34;8.18;;;2.30;;
53411;SDS011;39307;52.870;13.660;2023-10-08T00:54:01;11.05;;;2.30;;
53411;SDS011;39307;52.870;13.660;2023-10-08T00:56:29;12.43;;;2.30;;
53411;SDS011;39307;52.870;13.660;2023-10-08T00:58:55;9.82;;;2.28;;
53411;SDS011;39307;52.870;13.660;2023-10-08T01:01:21;9.27;;;2.35;;
53411;SDS011;39307;52.870;13.660;2023-10-08T01:03:48;8.85;;;2.47;;
53411;SDS011;39307;52.870;13.660;2023-10-08T01:06:14;7.65;;;2.15;;
53411;SDS011;39307;52.870;13.660;2023-10-08T01:08:42;9.00;;;2.28;;
53411;SDS011;39307;52.870;13.660;2023-10-08T01:11:18;7.43;;;2.15;;
53411;SDS011;39307;52.870;13.660;2023-10-08T01:13:44;8.75;;;2.28;;
53411;SDS011;39307;52.870;13.660;2023-10-08T01:16:11;10.13;;;2.38;;
53411;SDS011;39307;52.870;13.660;2023-10-08T01:18:37;11.00;;;2.42;;
53411;SDS011;39307;52.870;13.660;2023-10-08T01:21:03;9.07;;;2.58;;
53411;SDS011;39307;52.870;13.660;2023-10-08T01:23:30;8.30;;;2.30;;
53411;SDS011;39307;52.870;13.660;2023-10-08T01:25:56;7.67;;;2.70;;
53411;SDS011;39307;52.870;13.660;2023-10-08T01:28:23;12.63;;;2.70;;
53411;SDS011;39307;52.870;13.660;2023-10-08T01:30:49;8.10;;;2.30;;
53411;SDS011;39307;52.870;13.660;2023-10-08T01:33:15;10.00;;;2.65;;
53411;SDS011;39307;52.870;13.660;2023-10-08T01:35:41;10.00;;;2.40;;
53411;SDS011;39307;52.870;13.660;2023-10-08T01:38:08;8.27;;;2.22;;
53411;SDS011;39307;52.870;13.660;2023-10-08T01:40:34;8.10;;;2.20;;
53411;SDS011;39307;52.870;13.660;2023-10-08T01:43:00;8.50;;;2.17;;
53411;SDS011;39307;52.870;13.660;2023-10-08T01:45:27;8.53;;;2.30;;
53411;SDS011;39307;52.870;13.660;2023-10-08T01:47:53;8.75;;;2.20;;
53411;SDS011;39307;52.870;13.660;2023-10-08T01:50:20;9.88;;;2.20;;
53411;SDS011;39307;52.870;13.660;2023-10-08T01:52:50;7.85;;;2.10;;
53411;SDS011;39307;52.870;13.660;2023-10-08T01:55:16;8.32;;;2.05;;
53411;SDS011;39307;52.870;13.660;2023-10-08T01:57:42;9.63;;;2.00;;
53411;SDS011;39307;52.870;13.660;2023-10-08T02:00:09;8.67;;;2.40;;
53411;SDS011;39307;52.870;13.660;2023-10-08T02:02:36;9.05;;;2.30;;
53411;SDS011;39307;52.870;13.660;2023-10-08T02:05:02;10.60;;;2.85;;
53411;SDS011;39307;52.870;13.660;2023-10-08T02:07:28;11.00;;;2.73;;
53411;SDS011;39307;52.870;13.660;2023-10-08T02:09:54;8.73;;;2.35;;
53411;SDS011;39307;52.870;13.660;2023-10-08T02:12:21;8.48;;;2.17;;
53411;SDS011;39307;52.870;13.660;2023-10-08T02:14:48;6.03;;;1.92;;
53411;SDS011;39307;52.870;13.660;2023-10-08T02:17:15;8.50;;;2.20;;
53411;SDS011;39307;52.870;13.660;2023-10-08T02:19:41;10.05;;;2.50;;
53411;SDS011;39307;52.870;13.660;2023-10-08T02:22:08;7.03;;;2.22;;
53411;SDS011;39307;52.870;13.660;2023-10-08T02:24:34;6.32;;;2.17;;
53411;SDS011;39307;52.870;13.660;2023-10-08T02:27:01;8.30;;;2.50;;
53411;SDS011;39307;52.870;13.660;2023-10-08T02:29:28;9.35;;;2.42;;
53411;SDS011;39307;52.870;13.660;2023-10-08T02:31:56;7.80;;;2.17;;
53411;SDS011;39307;52.870;13.660;2023-10-08T02:34:23;7.20;;;2.20;;
53411;SDS011;39307;52.870;13.660;2023-10-08T02:36:49;7.43;;;2.30;;
53411;SDS011;39307;52.870;13.660;2023-10-08T02:39:15;9.75;;;2.38;;
53411;SDS011;39307;52.870;13.660;2023-10-08T02:41:42;7.75;;;2.08;;
53411;SDS011;39307;52.870;13.660;2023-10-08T02:44:09;7.05;;;2.10;;
53411;SDS011;39307;52.870;13.660;2023-10-08T02:46:35;9.00;;;2.42;;
53411;SDS011;39307;52.870;13.660;2023-10-08T02:49:01;7.85;;;2.30;;
53411;SDS011;39307;52.870;13.660;2023-10-08T02:51:28;10.33;;;2.40;;
53411;SDS011;39307;52.870;13.660;2023-10-08T02:53:54;11.43;;;2.50;;
53411;SDS011;39307;52.870;13.660;2023-10-08T02:56:20;7.90;;;2.25;;
53411;SDS011;39307;52.870;13.660;2023-10-08T02:58:46;10.15;;;2.22;;
53411;SDS011;39307;52.870;13.660;2023-10-08T03:01:13;6.60;;;2.05;;
53411;SDS011;39307;52.870;13.660;2023-10-08T03:03:40;6.47;;;1.90;;
53411;SDS011;39307;52.870;13.660;2023-10-08T03:06:06;6.88;;;2.25;;
53411;SDS011;39307;52.870;13.660;2023-10-08T03:08:33;6.45;;;2.20;;
53411;SDS011;39307;52.870;13.660;2023-10-08T03:10:59;6.90;;;2.40;;
53411;SDS011;39307;52.870;13.660;2023-10-08T03:13:25;8.73;;;2.35;;
53411;SDS011;39307;52.870;13.660;2023-10-08T03:15:51;6.57;;;2.10;;
53411;SDS011;39307;52.870;13.660;2023-10-08T03:18:18;7.50;;;2.33;;
53411;SDS011;39307;52.870;13.660;2023-10-08T03:20:44;7.35;;;2.42;;
53411;SDS011;39307;52.870;13.660;2023-10-08T03:23:12;7.30;;;1.98;;
53411;SDS011;39307;52.870;13.660;2023-10-08T03:25:39;7.47;;;2.20;;
53411;SDS011;39307;52.870;13.660;2023-10-08T03:28:05;8.65;;;2.58;;
53411;SDS011;39307;52.870;13.660;2023-10-08T03:30:31;6.53;;;1.92;;
53411;SDS011;39307;52.870;13.660;2023-10-08T03:32:58;9.38;;;2.50;;
53411;SDS011;39307;52.870;13.660;2023-10-08T03:35:24;8.45;;;2.78;;
53411;SDS011;39307;52.870;13.660;2023-10-08T03:37:50;7.68;;;2.55;;
53411;SDS011;39307;52.870;13.660;2023-10-08T03:40:16;6.80;;;2.00;;
53411;SDS011;39307;52.870;13.660;2023-10-08T03:42:43;7.63;;;2.22;;
53411;SDS011;39307;52.870;13.660;2023-10-08T03:45:09;6.90;;;2.50;;
53411;SDS011;39307;52.870;13.660;2023-10-08T03:47:36;8.15;;;2.20;;
53411;SDS011;39307;52.870;13.660;2023-10-08T03:50:06;7.20;;;2.00;;
53411;SDS011;39307;52.870;13.660;2023-10-08T03:52:33;7.47;;;2.08;;
53411;SDS011;39307;52.870;13.660;2023-10-08T03:54:59;5.78;;;2.10;;
53411;SDS011;39307;52.870;13.660;2023-10-08T03:57:26;6.28;;;1.85;;
53411;SDS011;39307;52.870;13.660;2023-10-08T03:59:52;6.37;;;2.17;;
53411;SDS011;39307;52.870;13.660;2023-10-08T04:02:18;8.00;;;1.92;;
53411;SDS011;39307;52.870;13.660;2023-10-08T04:04:45;6.28;;;1.88;;
53411;SDS011;39307;52.870;13.660;2023-10-08T04:07:11;8.80;;;1.90;;
53411;SDS011;39307;52.870;13.660;2023-10-08T04:09:37;6.07;;;2.10;;
53411;SDS011;39307;52.870;13.660;2023-10-08T04:12:03;7.10;;;2.47;;
53411;SDS011;39307;52.870;13.660;2023-10-08T04:14:30;6.43;;;1.80;;
53411;SDS011;39307;52.870;13.660;2023-10-08T04:16:56;6.63;;;2.38;;
53411;SDS011;39307;52.870;13.660;2023-10-08T04:19:22;5.90;;;2.15;;
53411;SDS011;39307;52.870;13.660;2023-10-08T04:21:49;8.50;;;2.33;;
53411;SDS011;39307;52.870;13.660;2023-10-08T04:24:15;6.88;;;2.00;;
53411;SDS011;39307;52.870;13.660;2023-10-08T04:26:41;9.85;;;2.58;;
53411;SDS011;39307;52.870;13.660;2023-10-08T04:29:07;6.50;;;1.98;;
53411;SDS011;39307;52.870;13.660;2023-10-08T04:31:34;7.00;;;1.80;;
53411;SDS011;39307;52.870;13.660;2023-10-08T04:34:00;7.97;;;2.25;;
53411;SDS011;39307;52.870;13.660;2023-10-08T04:36:26;8.30;;;2.10;;
53411;SDS011;39307;52.870;13.660;2023-10-08T04:38:53;6.47;;;1.90;;
53411;SDS011;39307;52.870;13.660;2023-10-08T04:41:19;6.43;;;1.90;;
53411;SDS011;39307;52.870;13.660;2023-10-08T04:43:46;4.32;;;1.80;;
53411;SDS011;39307;52.870;13.660;2023-10-08T04:46:12;10.05;;;2.22;;
53411;SDS011;39307;52.870;13.660;2023-10-08T04:48:38;6.85;;;2.10;;
53411;SDS011;39307;52.870;13.660;2023-10-08T04:51:05;6.87;;;2.07;;
53411;SDS011;39307;52.870;13.660;2023-10-08T04:53:31;6.57;;;1.95;;
53411;SDS011;39307;52.870;13.660;2023-10-08T04:55:59;7.65;;;2.00;;
53411;SDS011;39307;52.870;13.660;2023-10-08T04:58:25;6.75;;;1.98;;
53411;SDS011;39307;52.870;13.660;2023-10-08T05:00:51;7.90;;;2.10;;
53411;SDS011;39307;52.870;13.660;2023-10-08T05:03:18;6.05;;;2.20;;
53411;SDS011;39307;52.870;13.660;2023-10-08T05:05:45;6.65;;;1.90;;
53411;SDS011;39307;52.870;13.660;2023-10-08T05:08:11;7.75;;;2.10;;
53411;SDS011;39307;52.870;13.660;2023-10-08T05:10:37;6.03;;;1.95;;
53411;SDS011;39307;52.870;13.660;2023-10-08T05:13:03;5.53;;;1.85;;
53411;SDS011;39307;52.870;13.660;2023-10-08T05:15:30;7.63;;;1.80;;
53411;SDS011;39307;52.870;13.660;2023-10-08T05:17:56;7.70;;;2.13;;
53411;SDS011;39307;52.870;13.660;2023-10-08T05:20:23;5.13;;;1.98;;
53411;SDS011;39307;52.870;13.660;2023-10-08T05:22:49;5.57;;;2.00;;
53411;SDS011;39307;52.870;13.660;2023-10-08T05:25:16;8.40;;;2.03;;
53411;SDS011;39307;52.870;13.660;2023-10-08T05:27:43;5.45;;;1.60;;
53411;SDS011;39307;52.870;13.660;2023-10-08T05:30:10;5.97;;;1.75;;
53411;SDS011;39307;52.870;13.660;2023-10-08T05:32:37;7.18;;;1.80;;
53411;SDS011;39307;52.870;13.660;2023-10-08T05:35:03;7.57;;;2.13;;
53411;SDS011;39307;52.870;13.660;2023-10-08T05:37:30;4.93;;;1.63;;
53411;SDS011;39307;52.870;13.660;2023-10-08T05:39:56;4.40;;;1.52;;
53411;SDS011;39307;52.870;13.660;2023-10-08T05:42:23;4.53;;;1.80;;
53411;SDS011;39307;52.870;13.660;2023-10-08T05:44:49;5.75;;;1.80;;
53411;SDS011;39307;52.870;13.660;2023-10-08T05:47:15;7.93;;;1.83;;
53411;SDS011;39307;52.870;13.660;2023-10-08T05:49:42;6.15;;;2.10;;
53411;SDS011;39307;52.870;13.660;2023-10-08T05:52:08;7.43;;;1.80;;
53411;SDS011;39307;52.870;13.660;2023-10-08T05:54:34;5.15;;;1.90;;
53411;SDS011;39307;52.870;13.660;2023-10-08T05:57:01;5.88;;;1.92;;
53411;SDS011;39307;52.870;13.660;2023-10-08T05:59:29;6.10;;;1.60;;
53411;SDS011;39307;52.870;13.660;2023-10-08T06:01:55;5.82;;;1.58;;
53411;SDS011;39307;52.870;13.660;2023-10-08T06:04:22;4.68;;;1.70;;
53411;SDS011;39307;52.870;13.660;2023-10-08T06:06:48;5.40;;;1.60;;
53411;SDS011;39307;52.870;13.660;2023-10-08T06:09:14;5.07;;;1.88;;
53411;SDS011;39307;52.870;13.660;2023-10-08T06:11:40;5.28;;;1.40;;
53411;SDS011;39307;52.870;13.660;2023-10-08T06:14:06;5.88;;;1.80;;
53411;SDS011;39307;52.870;13.660;2023-10-08T06:16:33;5.33;;;1.60;;
53411;SDS011;39307;52.870;13.660;2023-10-08T06:18:59;6.87;;;1.67;;
53411;SDS011;39307;52.870;13.660;2023-10-08T06:21:25;5.57;;;1.55;;
53411;SDS011;39307;52.870;13.660;2023-10-08T06:23:51;5.68;;;1.60;;
53411;SDS011;39307;52.870;13.660;2023-10-08T06:26:18;4.80;;;1.48;;
53411;SDS011;39307;52.870;13.660;2023-10-08T06:28:44;4.95;;;1.75;;
53411;SDS011;39307;52.870;13.660;2023-10-08T06:31:10;3.92;;;1.52;;
53411;SDS011;39307;52.870;13.660;2023-10-08T06:33:40;3.90;;;1.40;;
53411;SDS011;39307;52.870;13.660;2023-10-08T06:36:06;5.32;;;1.58;;
53411;SDS011;39307;52.870;13.660;2023-10-08T06:38:33;5.28;;;1.58;;
53411;SDS011;39307;52.870;13.660;2023-10-08T06:40:59;5.00;;;1.60;;
53411;SDS011;39307;52.870;13.660;2023-10-08T06:43:26;7.70;;;1.83;;
53411;SDS011;39307;52.870;13.660;2023-10-08T06:45:53;8.18;;;1.90;;
53411;SDS011;39307;52.870;13.660;2023-10-08T06:48:21;4.65;;;1.52;;
53411;SDS011;39307;52.870;13.660;2023-10-08T06:50:48;4.40;;;1.60;;
53411;SDS011;39307;52.870;13.660;2023-10-08T06:53:15;6.03;;;1.40;;
53411;SDS011;39307;52.870;13.660;2023-10-08T06:55:41;5.43;;;1.52;;
53411;SDS011;39307;52.870;13.660;2023-10-08T06:58:07;5.60;;;1.70;;
53411;SDS011;39307;52.870;13.660;2023-10-08T07:00:35;4.85;;;1.58;;
53411;SDS011;39307;52.870;13.660;2023-10-08T07:03:01;6.70;;;2.00;;
53411;SDS011;39307;52.870;13.660;2023-10-08T07:05:27;4.60;;;1.40;;
53411;SDS011;39307;52.870;13.660;2023-10-08T07:07:53;4.43;;;1.40;;
53411;SDS011;39307;52.870;13.660;2023-10-08T07:10:20;4.32;;;1.40;;
53411;SDS011;39307;52.870;13.660;2023-10-08T07:12:46;5.50;;;2.50;;
53411;SDS011;39307;52.870;13.660;2023-10-08T07:15:12;11.80;;;8.30;;
53411;SDS011;39307;52.870;13.660;2023-10-08T07:17:39;21.40;;;17.05;;
53411;SDS011;39307;52.870;13.660;2023-10-08T07:20:05;18.98;;;14.40;;
53411;SDS011;39307;52.870;13.660;2023-10-08T07:22:32;17.55;;;14.00;;
53411;SDS011;39307;52.870;13.660;2023-10-08T07:24:58;30.15;;;22.45;;
53411;SDS011;39307;52.870;13.660;2023-10-08T07:27:24;30.13;;;24.42;;
53411;SDS011;39307;52.870;13.660;2023-10-08T07:29:51;34.93;;;27.23;;
53411;SDS011;39307;52.870;13.660;2023-10-08T07:32:17;10.55;;;6.32;;
53411;SDS011;39307;52.870;13.660;2023-10-08T07:34:44;4.78;;;1.67;;
53411;SDS011;39307;52.870;13.660;2023-10-08T07:37:10;4.20;;;1.33;;
53411;SDS011;39307;52.870;13.660;2023-10-08T07:39:36;3.83;;;1.40;;
53411;SDS011;39307;52.870;13.660;2023-10-08T07:42:03;8.40;;;4.60;;
53411;SDS011;39307;52.870;13.660;2023-10-08T07:44:30;12.38;;;8.68;;
53411;SDS011;39307;52.870;13.660;2023-10-08T07:46:57;11.25;;;8.10;;
53411;SDS011;39307;52.870;13.660;2023-10-08T07:49:24;9.10;;;6.47;;
53411;SDS011;39307;52.870;13.660;2023-10-08T07:51:50;6.53;;;3.63;;
53411;SDS011;39307;52.870;13.660;2023-10-08T07:54:23;5.43;;;2.88;;
53411;SDS011;39307;52.870;13.660;2023-10-08T07:56:50;4.57;;;1.80;;
53411;SDS011;39307;52.870;13.660;2023-10-08T07:59:17;6.47;;;1.90;;
53411;SDS011;39307;52.870;13.660;2023-10-08T08:01:43;3.92;;;2.00;;
53411;SDS011;39307;52.870;13.660;2023-10-08T08:04:10;7.07;;;2.10;;
53411;SDS011;39307;52.870;13.660;2023-10-08T08:06:37;7.38;;;2.60;;
53411;SDS011;39307;52.870;13.660;2023-10-08T08:09:04;8.10;;;4.43;;
53411;SDS011;39307;52.870;13.660;2023-10-08T08:11:30;5.25;;;2.17;;
53411;SDS011;39307;52.870;13.660;2023-10-08T08:13:56;4.40;;;1.63;;
53411;SDS011;39307;52.870;13.660;2023-10-08T08:16:22;5.05;;;2.13;;
53411;SDS011;39307;52.870;13.660;2023-10-08T08:18:52;5.40;;;2.38;;
53411;SDS011;39307;52.870;13.660;2023-10-08T08:21:19;5.78;;;2.25;;
53411;SDS011;39307;52.870;13.660;2023-10-08T08:23:46;6.25;;;2.42;;
53411;SDS011;39307;52.870;13.660;2023-10-08T08:26:16;7.60;;;4.15;;
53411;SDS011;39307;52.870;13.660;2023-10-08T08:28:46;7.00;;;3.10;;
53411;SDS011;39307;52.870;13.660;2023-10-08T08:31:13;3.65;;;1.20;;
53411;SDS011;39307;52.870;13.660;2023-10-08T08:33:40;4.03;;;1.30;;
53411;SDS011;39307;52.870;13.660;2023-10-08T08:36:06;3.10;;;0.93;;
53411;SDS011;39307;52.870;13.660;2023-10-08T08:38:32;3.00;;;0.90;;
53411;SDS011;39307;52.870;13.660;2023-10-08T08:41:03;2.38;;;0.77;;
53411;SDS011;39307;52.870;13.660;2023-10-08T08:43:33;1.53;;;0.70;;
53411;SDS011;39307;52.870;13.660;2023-10-08T08:46:02;3.00;;;0.90;;
53411;SDS011;39307;52.870;13.660;2023-10-08T08:48:30;1.95;;;0.57;;
53411;SDS011;39307;52.870;13.660;2023-10-08T08:50:57;2.72;;;0.77;;
53411;SDS011;39307;52.870;13.660;2023-10-08T08:53:24;1.60;;;0.60;;
53411;SDS011;39307;52.870;13.660;2023-10-08T08:55:50;1.67;;;0.68;;
53411;SDS011;39307;52.870;13.660;2023-10-08T08:58:19;2.73;;;0.70;;
53411;SDS011;39307;52.870;13.660;2023-10-08T09:00:46;1.60;;;0.60;;
53411;SDS011;39307;52.870;13.660;2023-10-08T09:03:13;4.00;;;0.80;;
53411;SDS011;39307;52.870;13.660;2023-10-08T09:05:40;1.98;;;0.60;;
53411;SDS011;39307;52.870;13.660;2023-10-08T09:08:06;2.55;;;1.17;;
53411;SDS011;39307;52.870;13.660;2023-10-08T09:10:33;2.73;;;1.20;;
53411;SDS011;39307;52.870;13.660;2023-10-08T09:13:00;2.25;;;0.75;;
53411;SDS011;39307;52.870;13.660;2023-10-08T09:15:27;1.92;;;0.60;;
53411;SDS011;39307;52.870;13.660;2023-10-08T09:17:54;2.63;;;0.63;;
53411;SDS011;39307;52.870;13.660;2023-10-08T09:20:24;2.03;;;0.73;;
53411;SDS011;39307;52.870;13.660;2023-10-08T09:23:07;2.30;;;0.70;;
53411;SDS011;39307;52.870;13.660;2023-10-08T09:25:37;2.17;;;0.73;;
53411;SDS011;39307;52.870;13.660;2023-10-08T09:28:04;1.93;;;0.60;;
53411;SDS011;39307;52.870;13.660;2023-10-08T09:30:30;3.33;;;0.77;;
53411;SDS011;39307;52.870;13.660;2023-10-08T09:32:57;1.60;;;0.60;;
53411;SDS011;39307;52.870;13.660;2023-10-08T09:35:23;1.87;;;0.50;;
53411;SDS011;39307;52.870;13.660;2023-10-08T09:37:50;1.47;;;0.50;;
53411;SDS011;39307;52.870;13.660;2023-10-08T09:40:18;0.77;;;0.40;;
53411;SDS011;39307;52.870;13.660;2023-10-08T09:42:49;3.03;;;0.55;;
53411;SDS011;39307;52.870;13.660;2023-10-08T09:45:16;2.70;;;0.77;;
53411;SDS011;39307;52.870;13.660;2023-10-08T09:47:53;2.95;;;0.90;;
53411;SDS011;39307;52.870;13.660;2023-10-08T09:50:22;2.25;;;0.60;;
53411;SDS011;39307;52.870;13.660;2023-10-08T09:53:00;1.77;;;0.52;;
53411;SDS011;39307;52.870;13.660;2023-10-08T09:55:33;1.63;;;0.55;;
53411;SDS011;39307;52.870;13.660;2023-10-08T09:58:00;2.03;;;0.60;;
53411;SDS011;39307;52.870;13.660;2023-10-08T10:00:27;2.35;;;0.70;;
53411;SDS011;39307;52.870;13.660;2023-10-08T10:02:54;3.70;;;0.70;;
53411;SDS011;39307;52.870;13.660;2023-10-08T10:05:21;3.15;;;0.70;;
53411;SDS011;39307;52.870;13.660;2023-10-08T10:07:50;2.00;;;0.75;;
53411;SDS011;39307;52.870;13.660;2023-10-08T10:10:28;2.47;;;0.80;;
53411;SDS011;39307;52.870;13.660;2023-10-08T10:12:57;2.20;;;0.77;;
53411;SDS011;39307;52.870;13.660;2023-10-08T10:15:24;2.08;;;0.68;;
53411;SDS011;39307;52.870;13.660;2023-10-08T10:17:50;1.75;;;0.60;;
53411;SDS011;39307;52.870;13.660;2023-10-08T10:20:17;1.75;;;0.55;;
53411;SDS011;39307;52.870;13.660;2023-10-08T10:22:43;1.35;;;0.50;;
53411;SDS011;39307;52.870;13.660;2023-10-08T10:25:10;1.80;;;0.65;;
53411;SDS011;39307;52.870;13.660;2023-10-08T10:27:38;2.03;;;0.70;;
53411;SDS011;39307;52.870;13.660;2023-10-08T10:30:04;2.38;;;0.60;;
53411;SDS011;39307;52.870;13.660;2023-10-08T10:32:31;1.03;;;0.50;;
53411;SDS011;39307;52.870;13.660;2023-10-08T10:34:57;2.53;;;0.53;;
53411;SDS011;39307;52.870;13.660;2023-10-08T10:37:23;2.05;;;0.55;;
53411;SDS011;39307;52.870;13.660;2023-10-08T10:39:57;2.03;;;0.60;;
53411;SDS011;39307;52.870;13.660;2023-10-08T10:42:23;3.00;;;0.73;;
53411;SDS011;39307;52.870;13.660;2023-10-08T10:44:50;1.45;;;0.40;;
53411;SDS011;39307;52.870;13.660;2023-10-08T10:47:19;1.23;;;0.40;;
53411;SDS011;39307;52.870;13.660;2023-10-08T10:49:47;2.90;;;0.60;;
53411;SDS011;39307;52.870;13.660;2023-10-08T10:52:15;1.63;;;0.63;;
53411;SDS011;39307;52.870;13.660;2023-10-08T10:54:42;2.42;;;0.80;;
53411;SDS011;39307;52.870;13.660;2023-10-08T10:57:08;1.40;;;0.50;;
53411;SDS011;39307;52.870;13.660;2023-10-08T10:59:34;1.20;;;0.47;;
53411;SDS011;39307;52.870;13.660;2023-10-08T11:02:00;3.00;;;0.63;;
53411;SDS011;39307;52.870;13.660;2023-10-08T11:04:27;3.20;;;0.60;;
53411;SDS011;39307;52.870;13.660;2023-10-08T11:06:53;1.43;;;0.50;;
53411;SDS011;39307;52.870;13.660;2023-10-08T11:09:20;3.45;;;0.90;;
53411;SDS011;39307;52.870;13.660;2023-10-08T11:11:46;2.00;;;0.50;;
53411;SDS011;39307;52.870;13.660;2023-10-08T11:14:13;1.98;;;0.70;;
53411;SDS011;39307;52.870;13.660;2023-10-08T11:16:44;1.33;;;0.50;;
53411;SDS011;39307;52.870;13.660;2023-10-08T11:19:12;2.47;;;0.50;;
53411;SDS011;39307;52.870;13.660;2023-10-08T11:21:48;2.08;;;0.63;;
53411;SDS011;39307;52.870;13.660;2023-10-08T11:24:26;2.57;;;0.97;;
53411;SDS011;39307;52.870;13.660;2023-10-08T11:26:57;1.63;;;0.57;;
53411;SDS011;39307;52.870;13.660;2023-10-08T11:29:23;2.03;;;0.67;;
53411;SDS011;39307;52.870;13.660;2023-10-08T11:31:51;1.85;;;0.60;;
53411;SDS011;39307;52.870;13.660;2023-10-08T11:34:17;1.75;;;0.60;;
53411;SDS011;39307;52.870;13.660;2023-10-08T11:36:43;5.93;;;1.98;;
53411;SDS011;39307;52.870;13.660;2023-10-08T11:39:12;2.30;;;0.75;;
53411;SDS011;39307;52.870;13.660;2023-10-08T11:41:39;4.00;;;0.77;;
53411;SDS011;39307;52.870;13.660;2023-10-08T11:44:05;2.40;;;0.60;;
53411;SDS011;39307;52.870;13.660;2023-10-08T11:46:31;1.88;;;0.68;;
53411;SDS011;39307;52.870;13.660;2023-10-08T11:48:57;1.23;;;0.50;;
53411;SDS011;39307;52.870;13.660;2023-10-08T11:51:25;1.92;;;0.57;;
53411;SDS011;39307;52.870;13.660;2023-10-08T11:53:51;1.70;;;0.50;;
53411;SDS011;39307;52.870;13.660;2023-10-08T11:56:17;1.77;;;0.50;;
53411;SDS011;39307;52.870;13.660;2023-10-08T11:58:44;1.60;;;0.52;;
53411;SDS011;39307;52.870;13.660;2023-10-08T12:01:13;2.10;;;0.60;;
53411;SDS011;39307;52.870;13.660;2023-10-08T12:03:39;2.28;;;0.52;;
53411;SDS011;39307;52.870;13.660;2023-10-08T12:06:05;5.53;;;2.35;;
53411;SDS011;39307;52.870;13.660;2023-10-08T12:08:31;15.90;;;11.70;;
53411;SDS011;39307;52.870;13.660;2023-10-08T12:10:57;15.38;;;10.25;;
53411;SDS011;39307;52.870;13.660;2023-10-08T12:13:23;14.18;;;8.57;;
53411;SDS011;39307;52.870;13.660;2023-10-08T12:15:51;7.05;;;3.75;;
53411;SDS011;39307;52.870;13.660;2023-10-08T12:18:21;22.30;;;13.40;;
53411;SDS011;39307;52.870;13.660;2023-10-08T12:20:47;15.02;;;9.13;;
53411;SDS011;39307;52.870;13.660;2023-10-08T12:23:13;9.90;;;5.13;;
53411;SDS011;39307;52.870;13.660;2023-10-08T12:25:39;26.48;;;15.10;;
53411;SDS011;39307;52.870;13.660;2023-10-08T12:28:06;17.13;;;9.98;;
53411;SDS011;39307;52.870;13.660;2023-10-08T12:30:32;42.92;;;26.23;;
53411;SDS011;39307;52.870;13.660;2023-10-08T12:32:59;13.25;;;6.43;;
53411;SDS011;39307;52.870;13.660;2023-10-08T12:35:26;37.55;;;19.58;;
53411;SDS011;39307;52.870;13.660;2023-10-08T12:37:53;18.10;;;8.63;;
53411;SDS011;39307;52.870;13.660;2023-10-08T12:40:20;7.00;;;2.55;;
53411;SDS011;39307;52.870;13.660;2023-10-08T12:42:46;63.03;;;29.67;;
53411;SDS011;39307;52.870;13.660;2023-10-08T12:45:12;25.35;;;11.63;;
53411;SDS011;39307;52.870;13.660;2023-10-08T12:47:39;17.47;;;6.90;;
53411;SDS011;39307;52.870;13.660;2023-10-08T12:50:05;16.50;;;7.07;;
53411;SDS011;39307;52.870;13.660;2023-10-08T12:52:32;14.27;;;5.05;;
53411;SDS011;39307;52.870;13.660;2023-10-08T12:54:58;2.35;;;0.70;;
53411;SDS011;39307;52.870;13.660;2023-10-08T12:57:25;2.85;;;1.00;;
53411;SDS011;39307;52.870;13.660;2023-10-08T12:59:51;11.07;;;3.80;;
53411;SDS011;39307;52.870;13.660;2023-10-08T13:02:17;26.05;;;8.27;;
53411;SDS011;39307;52.870;13.660;2023-10-08T13:04:43;33.75;;;13.88;;
53411;SDS011;39307;52.870;13.660;2023-10-08T13:07:10;32.08;;;13.98;;
53411;SDS011;39307;52.870;13.660;2023-10-08T13:09:36;37.50;;;15.68;;
53411;SDS011;39307;52.870;13.660;2023-10-08T13:12:03;15.25;;;5.95;;
53411;SDS011;39307;52.870;13.660;2023-10-08T13:14:29;22.80;;;9.68;;
53411;SDS011;39307;52.870;13.660;2023-10-08T13:16:55;18.17;;;8.38;;
53411;SDS011;39307;52.870;13.660;2023-10-08T13:19:21;6.25;;;2.72;;
53411;SDS011;39307;52.870;13.660;2023-10-08T13:21:50;5.00;;;2.05;;
53411;SDS011;39307;52.870;13.660;2023-10-08T13:24:16;4.90;;;1.80;;
53411;SDS011;39307;52.870;13.660;2023-10-08T13:26:42;3.17;;;0.98;;
53411;SDS011;39307;52.870;13.660;2023-10-08T13:29:09;1.77;;;0.80;;
53411;SDS011;39307;52.870;13.660;2023-10-08T13:31:34;2.50;;;0.80;;
53411;SDS011;39307;52.870;13.660;2023-10-08T13:34:01;5.00;;;2.60;;
53411;SDS011;39307;52.870;13.660;2023-10-08T13:36:28;5.05;;;1.90;;
53411;SDS011;39307;52.870;13.660;2023-10-08T13:38:54;3.05;;;1.20;;
53411;SDS011;39307;52.870;13.660;2023-10-08T13:41:20;2.47;;;0.80;;
53411;SDS011;39307;52.870;13.660;2023-10-08T13:43:48;1.90;;;0.70;;
53411;SDS011;39307;52.870;13.660;2023-10-08T13:46:16;1.70;;;0.50;;
53411;SDS011;39307;52.870;13.660;2023-10-08T13:48:44;4.18;;;0.70;;
53411;SDS011;39307;52.870;13.660;2023-10-08T13:51:11;1.67;;;0.50;;
53411;SDS011;39307;52.870;13.660;2023-10-08T13:53:37;1.20;;;0.60;;
53411;SDS011;39307;52.870;13.660;2023-10-08T13:56:03;1.80;;;0.60;;
53411;SDS011;39307;52.870;13.660;2023-10-08T13:58:30;1.90;;;0.70;;
53411;SDS011;39307;52.870;13.660;2023-10-08T14:00:57;2.50;;;0.60;;
53411;SDS011;39307;52.870;13.660;2023-10-08T14:03:23;4.87;;;0.63;;
53411;SDS011;39307;52.870;13.660;2023-10-08T14:05:49;1.33;;;0.47;;
53411;SDS011;39307;52.870;13.660;2023-10-08T14:08:17;2.00;;;0.70;;
53411;SDS011;39307;52.870;13.660;2023-10-08T14:10:44;3.45;;;0.80;;
53411;SDS011;39307;52.870;13.660;2023-10-08T14:13:11;3.80;;;0.70;;
53411;SDS011;39307;52.870;13.660;2023-10-08T14:15:37;2.20;;;0.70;;
53411;SDS011;39307;52.870;13.660;2023-10-08T14:18:03;2.50;;;0.80;;
53411;SDS011;39307;52.870;13.660;2023-10-08T14:20:30;3.00;;;0.80;;
53411;SDS011;39307;52.870;13.660;2023-10-08T14:22:57;1.60;;;0.60;;
53411;SDS011;39307;52.870;13.660;2023-10-08T14:25:26;6.22;;;3.00;;
53411;SDS011;39307;52.870;13.660;2023-10-08T14:27:52;5.28;;;1.80;;